createdAt,value
2018-11-22T00:04:26.449Z,100.00
2018-11-22T00:09:49.046Z,100.00
2018-11-22T00:14:52.597Z,100.00
2018-11-22T00:19:56.449Z,100.00
2018-11-22T00:25:00.659Z,100.00
2018-11-22T00:30:16.044Z,100.00
2018-11-22T00:35:20.096Z,100.00
2018-11-22T00:40:25.239Z,100.00
2018-11-22T00:45:47.695Z,100.00
2018-11-22T00:50:51.145Z,100.00
2018-11-22T00:55:54.602Z,100.00
2018-11-22T01:00:58.298Z,100.00
2018-11-22T01:06:01.715Z,100.00
2018-11-22T01:11:05.648Z,100.00
2018-11-22T01:16:09.081Z,100.00
2018-11-22T01:21:12.473Z,100.00
2018-11-22T01:26:16.161Z,100.00
2018-11-22T01:31:38.664Z,100.00
2018-11-22T01:36:42.123Z,100.00
2018-11-22T01:41:45.583Z,100.00
2018-11-22T01:46:48.993Z,100.00
2018-11-22T01:51:52.412Z,100.00
2018-11-22T01:56:55.797Z,100.00
2018-11-22T02:01:59.246Z,100.00
2018-11-22T02:07:02.824Z,100.00
2018-11-22T02:12:25.418Z,100.00
2018-11-22T02:17:28.879Z,100.00
2018-11-22T02:22:32.256Z,100.00
2018-11-22T02:27:35.924Z,100.00
2018-11-22T02:32:39.551Z,100.00
2018-11-22T02:37:43.226Z,100.00
2018-11-22T02:42:47.262Z,100.00
2018-11-22T02:47:50.700Z,100.00
2018-11-22T02:52:54.865Z,100.00
2018-11-22T02:57:58.219Z,100.00
2018-11-22T03:03:21.059Z,100.00
2018-11-22T03:08:24.617Z,100.00
2018-11-22T03:13:27.982Z,100.00
2018-11-22T03:18:31.359Z,100.00
2018-11-22T03:23:34.828Z,100.00
2018-11-22T03:28:38.336Z,100.00
2018-11-22T03:33:41.746Z,100.00
2018-11-22T03:39:05.707Z,100.00
2018-11-22T03:44:09.190Z,100.00
2018-11-22T03:49:12.805Z,100.00
2018-11-22T03:54:35.512Z,100.00
2018-11-22T03:59:38.878Z,100.00
2018-11-22T04:04:42.398Z,100.00
2018-11-22T04:15:10.831Z,100.00
2018-11-22T04:20:33.388Z,100.00
2018-11-22T04:25:36.857Z,100.00
2018-11-22T04:30:40.244Z,100.00
2018-11-22T04:35:43.618Z,100.00
2018-11-22T04:40:47.489Z,100.00
2018-11-22T04:46:09.955Z,100.00
2018-11-22T04:51:13.433Z,100.00
2018-11-22T04:56:16.915Z,100.00
2018-11-22T05:01:20.290Z,100.00
2018-11-22T05:06:23.711Z,100.00
2018-11-22T05:11:46.161Z,100.00
2018-11-22T05:16:49.632Z,100.00
2018-11-22T05:21:53.093Z,100.00
2018-11-22T05:27:15.707Z,100.00
2018-11-22T05:32:19.357Z,100.00
2018-11-22T05:37:22.783Z,100.00
2018-11-22T05:42:26.170Z,100.00
2018-11-22T05:47:29.580Z,100.00
2018-11-22T05:57:42.191Z,100.00
2018-11-22T06:02:45.640Z,100.00
2018-11-22T06:07:49.040Z,100.00
2018-11-22T06:12:53.247Z,100.00
2018-11-22T06:17:57.849Z,100.00
2018-11-22T06:23:01.404Z,100.00
2018-11-22T06:28:23.923Z,100.00
2018-11-22T06:33:27.770Z,100.00
2018-11-22T06:38:31.318Z,100.00
2018-11-22T06:43:34.857Z,100.00
2018-11-22T06:48:38.241Z,100.00
2018-11-22T06:53:41.743Z,100.00
2018-11-22T06:59:05.224Z,100.00
2018-11-22T07:14:36.298Z,100.00
2018-11-22T07:19:59.201Z,100.00
2018-11-22T07:25:02.848Z,100.00
2018-11-22T07:30:48.816Z,100.00
2018-11-22T07:51:25.981Z,100.00
2018-11-22T07:56:29.388Z,100.00
2018-11-22T08:01:51.842Z,100.00
2018-11-22T08:12:26.027Z,100.00
2018-11-22T08:17:45.781Z,100.00
2018-11-22T08:23:08.818Z,100.00
2018-11-22T08:28:15.306Z,100.00
2018-11-22T08:33:38.067Z,99.38
2018-11-22T08:39:00.534Z,98.62
2018-11-22T08:49:28.364Z,98.11
2018-11-22T08:54:37.502Z,97.08
2018-11-22T09:00:00.283Z,96.40
2018-11-22T09:10:45.302Z,93.60
2018-11-22T09:16:07.792Z,94.91
2018-11-22T09:21:11.270Z,95.71
2018-11-22T09:26:16.153Z,95.38
2018-11-22T09:31:18.120Z,94.72
2018-11-22T09:36:40.840Z,94.39
2018-11-22T09:41:44.313Z,95.39
2018-11-22T09:57:45.323Z,94.51
2018-11-22T10:03:15.604Z,92.90
2018-11-22T10:08:38.358Z,92.03
2018-11-22T10:14:01.202Z,91.63
2018-11-22T10:24:19.609Z,92.56
2018-11-22T10:29:42.269Z,94.06
2018-11-22T10:35:06.418Z,93.56
2018-11-22T10:40:16.231Z,92.96
2018-11-22T10:45:21.154Z,93.08
2018-11-22T10:50:37.888Z,92.88
2018-11-22T10:55:42.925Z,92.84
2018-11-22T11:01:05.375Z,93.55
2018-11-22T11:06:27.909Z,92.37
2018-11-22T11:16:49.841Z,92.38
2018-11-22T11:22:12.635Z,93.34
2018-11-22T11:27:16.112Z,92.50
2018-11-22T11:32:38.889Z,91.80
2018-11-22T11:43:17.757Z,91.04
2018-11-22T11:48:40.236Z,92.17
2018-11-22T11:59:12.595Z,92.23
2018-11-22T12:04:40.481Z,92.96
2018-11-22T12:14:58.742Z,92.60
2018-11-22T12:20:21.918Z,90.95
2018-11-22T12:25:26.481Z,92.12
2018-11-22T12:31:08.666Z,92.54
2018-11-22T12:36:31.203Z,92.50
2018-11-22T12:41:53.690Z,92.05
2018-11-22T12:52:12.288Z,91.68
2018-11-22T12:57:15.711Z,92.47
2018-11-22T13:07:28.630Z,92.94
2018-11-22T13:18:13.632Z,93.84
2018-11-22T13:23:39.382Z,92.79
2018-11-22T13:29:01.844Z,93.78
2018-11-22T13:34:05.475Z,94.06
2018-11-22T13:44:37.152Z,93.41
2018-11-22T13:49:59.830Z,94.68
2018-11-22T14:00:25.374Z,93.91
2018-11-22T14:05:45.666Z,93.76
2018-11-22T14:11:14.030Z,93.84
2018-11-22T14:26:45.142Z,93.29
2018-11-22T14:36:57.616Z,93.59
2018-11-22T14:42:20.365Z,93.76
2018-11-22T14:47:23.781Z,94.78
2018-11-22T14:52:46.223Z,94.94
2018-11-22T15:03:05.206Z,95.06
2018-11-22T15:08:27.958Z,95.02
2018-11-22T15:13:31.590Z,96.04
2018-11-22T15:18:35.056Z,96.20
2018-11-22T15:23:57.824Z,96.65
2018-11-22T15:29:01.303Z,96.19
2018-11-22T15:34:23.778Z,96.25
2018-11-22T15:39:46.974Z,97.36
2018-11-22T15:44:50.222Z,97.23
2018-11-22T15:49:53.632Z,96.78
2018-11-22T15:54:57.169Z,96.38
2018-11-22T16:00:26.944Z,97.55
2018-11-22T16:05:31.074Z,97.19
2018-11-22T16:10:53.994Z,97.10
2018-11-22T16:15:57.375Z,96.96
2018-11-22T16:21:00.803Z,97.11
2018-11-22T16:26:04.193Z,97.50
2018-11-22T16:31:26.978Z,97.72
2018-11-22T16:36:30.458Z,97.48
2018-11-22T16:41:53.220Z,97.80
2018-11-22T16:46:56.720Z,97.72
2018-11-22T16:52:00.100Z,97.98
2018-11-22T16:57:03.533Z,98.04
2018-11-22T17:07:16.343Z,97.79
2018-11-22T17:12:40.193Z,97.17
2018-11-22T17:17:44.435Z,98.29
2018-11-22T17:22:48.586Z,98.47
2018-11-22T17:27:53.485Z,97.93
2018-11-22T17:32:56.834Z,97.75
2018-11-22T17:38:01.373Z,98.76
2018-11-22T17:43:05.041Z,99.38
2018-11-22T17:48:08.732Z,98.24
2018-11-22T17:53:12.665Z,98.76
2018-11-22T17:58:16.341Z,98.81
2018-11-22T18:03:20.189Z,99.45
2018-11-22T18:08:23.600Z,99.11
2018-11-22T18:13:27.218Z,99.11
2018-11-22T18:18:30.939Z,98.97
2018-11-22T18:23:34.360Z,99.59
2018-11-22T18:28:37.702Z,99.75
2018-11-22T18:34:00.241Z,100.00
2018-11-22T18:39:04.251Z,100.00
2018-11-22T18:44:07.709Z,100.00
2018-11-22T18:49:11.095Z,100.00
2018-11-22T18:54:33.664Z,100.00
2018-11-22T19:04:53.139Z,100.00
2018-11-22T19:15:07.950Z,100.00
2018-11-22T19:20:52.514Z,100.00
2018-11-22T19:26:15.055Z,100.00
2018-11-22T19:36:33.280Z,100.00
2018-11-22T19:41:37.105Z,100.00
2018-11-22T19:46:40.835Z,100.00
2018-11-22T19:51:44.335Z,100.00
2018-11-22T19:57:06.909Z,100.00
2018-11-22T20:07:20.507Z,100.00
2018-11-22T20:12:23.939Z,100.00
2018-11-22T20:17:27.497Z,100.00
2018-11-22T20:22:31.029Z,100.00
2018-11-22T20:27:34.486Z,100.00
2018-11-22T20:48:20.283Z,100.00
2018-11-22T20:53:24.689Z,100.00
2018-11-22T21:03:57.174Z,100.00
2018-11-22T21:14:09.682Z,100.00
2018-11-22T21:19:32.012Z,100.00
2018-11-22T21:24:54.889Z,100.00
2018-11-22T21:30:22.941Z,100.00
2018-11-22T21:40:38.875Z,100.00
2018-11-22T21:45:42.378Z,100.00
2018-11-22T21:50:45.752Z,100.00
2018-11-22T21:55:49.362Z,100.00
2018-11-22T22:00:52.842Z,100.00
2018-11-22T22:05:56.249Z,100.00
2018-11-22T22:16:08.711Z,100.00
2018-11-22T22:21:31.144Z,100.00
2018-11-22T22:26:53.640Z,100.00
2018-11-22T22:31:57.533Z,100.00
2018-11-22T22:37:19.987Z,100.00
2018-11-22T22:42:42.485Z,100.00
2018-11-22T22:52:56.818Z,100.00
2018-11-22T22:58:00.390Z,100.00
2018-11-22T23:03:23.035Z,100.00
2018-11-22T23:08:45.553Z,100.00
2018-11-22T23:13:49.028Z,100.00
2018-11-22T23:19:11.474Z,100.00
2018-11-22T23:24:15.067Z,100.00
2018-11-22T23:29:37.516Z,100.00
2018-11-22T23:45:06.558Z,100.00
2018-11-22T23:50:30.679Z,100.00
2018-11-22T23:55:34.244Z,100.00
